sensor_id;sensor_type;location;lat;lon;timestamp;P1;durP1;ratioP1;P2;durP2;ratioP2
65996;SDS011;52765;52.258;21.052;2023-07-02T00:02:15;18.98;;;11.80;;
65996;SDS011;52765;52.258;21.052;2023-07-02T00:04:43;18.52;;;11.98;;
65996;SDS011;52765;52.258;21.052;2023-07-02T00:07:10;20.55;;;12.48;;
65996;SDS011;52765;52.258;21.052;2023-07-02T00:09:38;19.05;;;11.82;;
65996;SDS011;52765;52.258;21.052;2023-07-02T00:12:05;20.83;;;12.45;;
65996;SDS011;52765;52.258;21.052;2023-07-02T00:14:35;19.30;;;11.93;;
65996;SDS011;52765;52.258;21.052;2023-07-02T00:17:02;22.08;;;14.07;;
65996;SDS011;52765;52.258;21.052;2023-07-02T00:19:29;23.02;;;12.90;;
65996;SDS011;52765;52.258;21.052;2023-07-02T00:21:56;20.45;;;13.38;;
65996;SDS011;52765;52.258;21.052;2023-07-02T00:24:23;20.38;;;13.05;;
65996;SDS011;52765;52.258;21.052;2023-07-02T00:26:53;18.58;;;13.20;;
65996;SDS011;52765;52.258;21.052;2023-07-02T00:29:20;18.25;;;11.32;;
65996;SDS011;52765;52.258;21.052;2023-07-02T00:31:48;20.48;;;12.35;;
65996;SDS011;52765;52.258;21.052;2023-07-02T00:34:21;21.42;;;12.50;;
65996;SDS011;52765;52.258;21.052;2023-07-02T00:36:48;20.10;;;12.60;;
65996;SDS011;52765;52.258;21.052;2023-07-02T00:39:15;20.55;;;13.05;;
65996;SDS011;52765;52.258;21.052;2023-07-02T00:41:43;22.88;;;13.90;;
65996;SDS011;52765;52.258;21.052;2023-07-02T00:44:14;19.15;;;12.73;;
65996;SDS011;52765;52.258;21.052;2023-07-02T00:46:41;21.05;;;12.80;;
65996;SDS011;52765;52.258;21.052;2023-07-02T00:49:08;25.17;;;13.75;;
65996;SDS011;52765;52.258;21.052;2023-07-02T00:51:36;23.35;;;15.23;;
65996;SDS011;52765;52.258;21.052;2023-07-02T00:54:06;25.45;;;14.85;;
65996;SDS011;52765;52.258;21.052;2023-07-02T00:56:36;22.90;;;13.63;;
65996;SDS011;52765;52.258;21.052;2023-07-02T00:59:04;26.50;;;14.35;;
65996;SDS011;52765;52.258;21.052;2023-07-02T01:01:32;23.48;;;14.00;;
65996;SDS011;52765;52.258;21.052;2023-07-02T01:04:04;23.55;;;14.15;;
65996;SDS011;52765;52.258;21.052;2023-07-02T01:06:37;24.83;;;14.57;;
65996;SDS011;52765;52.258;21.052;2023-07-02T01:09:07;27.83;;;15.27;;
65996;SDS011;52765;52.258;21.052;2023-07-02T01:14:19;26.02;;;14.95;;
65996;SDS011;52765;52.258;21.052;2023-07-02T01:16:47;26.90;;;15.75;;
65996;SDS011;52765;52.258;21.052;2023-07-02T01:20:01;25.98;;;15.63;;
65996;SDS011;52765;52.258;21.052;2023-07-02T01:22:31;25.45;;;15.43;;
65996;SDS011;52765;52.258;21.052;2023-07-02T01:24:58;28.92;;;16.27;;
65996;SDS011;52765;52.258;21.052;2023-07-02T01:27:24;26.98;;;15.60;;
65996;SDS011;52765;52.258;21.052;2023-07-02T01:29:53;24.75;;;15.48;;
65996;SDS011;52765;52.258;21.052;2023-07-02T01:32:19;29.90;;;16.33;;
65996;SDS011;52765;52.258;21.052;2023-07-02T01:34:45;29.10;;;17.40;;
65996;SDS011;52765;52.258;21.052;2023-07-02T01:37:14;31.38;;;16.50;;
65996;SDS011;52765;52.258;21.052;2023-07-02T01:39:42;25.90;;;16.33;;
65996;SDS011;52765;52.258;21.052;2023-07-02T01:42:08;27.60;;;16.88;;
65996;SDS011;52765;52.258;21.052;2023-07-02T01:44:40;29.05;;;16.15;;
65996;SDS011;52765;52.258;21.052;2023-07-02T01:47:06;29.70;;;16.27;;
65996;SDS011;52765;52.258;21.052;2023-07-02T01:49:32;27.83;;;15.40;;
65996;SDS011;52765;52.258;21.052;2023-07-02T01:51:58;24.08;;;15.00;;
65996;SDS011;52765;52.258;21.052;2023-07-02T01:54:24;25.65;;;15.75;;
65996;SDS011;52765;52.258;21.052;2023-07-02T01:56:54;27.63;;;14.55;;
65996;SDS011;52765;52.258;21.052;2023-07-02T01:59:20;25.60;;;15.93;;
65996;SDS011;52765;52.258;21.052;2023-07-02T02:01:46;25.65;;;16.27;;
65996;SDS011;52765;52.258;21.052;2023-07-02T02:04:11;27.98;;;15.85;;
65996;SDS011;52765;52.258;21.052;2023-07-02T02:06:37;25.25;;;15.63;;
65996;SDS011;52765;52.258;21.052;2023-07-02T02:09:04;25.52;;;16.15;;
65996;SDS011;52765;52.258;21.052;2023-07-02T02:11:30;24.00;;;15.38;;
65996;SDS011;52765;52.258;21.052;2023-07-02T02:13:56;24.05;;;14.98;;
65996;SDS011;52765;52.258;21.052;2023-07-02T02:16:23;24.17;;;15.07;;
65996;SDS011;52765;52.258;21.052;2023-07-02T02:18:48;21.95;;;14.48;;
65996;SDS011;52765;52.258;21.052;2023-07-02T02:21:18;22.15;;;12.93;;
65996;SDS011;52765;52.258;21.052;2023-07-02T02:23:44;22.75;;;14.95;;
65996;SDS011;52765;52.258;21.052;2023-07-02T02:26:10;25.08;;;14.85;;
65996;SDS011;52765;52.258;21.052;2023-07-02T02:28:36;23.05;;;13.55;;
65996;SDS011;52765;52.258;21.052;2023-07-02T02:31:02;24.58;;;14.65;;
65996;SDS011;52765;52.258;21.052;2023-07-02T02:33:27;26.05;;;16.60;;
65996;SDS011;52765;52.258;21.052;2023-07-02T02:35:53;20.35;;;14.20;;
65996;SDS011;52765;52.258;21.052;2023-07-02T02:38:18;24.10;;;14.40;;
65996;SDS011;52765;52.258;21.052;2023-07-02T02:40:44;19.83;;;13.05;;
65996;SDS011;52765;52.258;21.052;2023-07-02T02:43:09;22.25;;;12.90;;
65996;SDS011;52765;52.258;21.052;2023-07-02T02:45:35;20.77;;;13.10;;
65996;SDS011;52765;52.258;21.052;2023-07-02T02:48:00;25.98;;;14.55;;
65996;SDS011;52765;52.258;21.052;2023-07-02T02:50:27;20.58;;;13.70;;
65996;SDS011;52765;52.258;21.052;2023-07-02T02:52:53;22.05;;;14.45;;
65996;SDS011;52765;52.258;21.052;2023-07-02T02:55:18;21.95;;;13.88;;
65996;SDS011;52765;52.258;21.052;2023-07-02T02:57:44;22.20;;;13.45;;
65996;SDS011;52765;52.258;21.052;2023-07-02T03:00:10;21.38;;;13.77;;
65996;SDS011;52765;52.258;21.052;2023-07-02T03:02:36;21.33;;;12.93;;
65996;SDS011;52765;52.258;21.052;2023-07-02T03:05:02;22.83;;;13.30;;
65996;SDS011;52765;52.258;21.052;2023-07-02T03:07:33;23.50;;;14.00;;
65996;SDS011;52765;52.258;21.052;2023-07-02T03:10:01;21.10;;;13.93;;
65996;SDS011;52765;52.258;21.052;2023-07-02T03:12:28;22.88;;;13.85;;
65996;SDS011;52765;52.258;21.052;2023-07-02T03:14:53;20.13;;;12.63;;
65996;SDS011;52765;52.258;21.052;2023-07-02T03:17:20;20.67;;;12.93;;
65996;SDS011;52765;52.258;21.052;2023-07-02T03:19:46;22.10;;;12.48;;
65996;SDS011;52765;52.258;21.052;2023-07-02T03:22:12;17.92;;;11.52;;
65996;SDS011;52765;52.258;21.052;2023-07-02T03:24:38;19.05;;;11.98;;
65996;SDS011;52765;52.258;21.052;2023-07-02T03:27:04;17.63;;;11.02;;
65996;SDS011;52765;52.258;21.052;2023-07-02T03:29:29;17.48;;;11.60;;
65996;SDS011;52765;52.258;21.052;2023-07-02T03:31:55;23.67;;;12.23;;
65996;SDS011;52765;52.258;21.052;2023-07-02T03:34:21;18.02;;;11.68;;
65996;SDS011;52765;52.258;21.052;2023-07-02T03:36:48;16.67;;;11.40;;
65996;SDS011;52765;52.258;21.052;2023-07-02T03:39:14;18.50;;;11.48;;
65996;SDS011;52765;52.258;21.052;2023-07-02T03:41:39;19.48;;;11.73;;
65996;SDS011;52765;52.258;21.052;2023-07-02T03:44:04;18.02;;;11.93;;
65996;SDS011;52765;52.258;21.052;2023-07-02T03:46:30;17.17;;;10.68;;
65996;SDS011;52765;52.258;21.052;2023-07-02T03:48:56;18.83;;;11.50;;
65996;SDS011;52765;52.258;21.052;2023-07-02T03:51:22;17.73;;;10.63;;
65996;SDS011;52765;52.258;21.052;2023-07-02T03:53:48;16.77;;;10.98;;
65996;SDS011;52765;52.258;21.052;2023-07-02T03:56:14;15.75;;;10.45;;
65996;SDS011;52765;52.258;21.052;2023-07-02T03:58:40;16.48;;;11.35;;
65996;SDS011;52765;52.258;21.052;2023-07-02T04:01:06;17.42;;;10.60;;
65996;SDS011;52765;52.258;21.052;2023-07-02T04:03:31;17.55;;;10.50;;
65996;SDS011;52765;52.258;21.052;2023-07-02T04:05:57;19.92;;;10.43;;
65996;SDS011;52765;52.258;21.052;2023-07-02T04:08:22;16.77;;;11.00;;
65996;SDS011;52765;52.258;21.052;2023-07-02T04:10:50;17.02;;;10.77;;
65996;SDS011;52765;52.258;21.052;2023-07-02T04:13:15;17.63;;;10.80;;
65996;SDS011;52765;52.258;21.052;2023-07-02T04:15:41;17.02;;;10.48;;
65996;SDS011;52765;52.258;21.052;2023-07-02T04:18:07;15.77;;;9.07;;
65996;SDS011;52765;52.258;21.052;2023-07-02T04:20:32;17.30;;;10.02;;
65996;SDS011;52765;52.258;21.052;2023-07-02T04:22:58;14.95;;;9.85;;
65996;SDS011;52765;52.258;21.052;2023-07-02T04:25:24;15.68;;;10.55;;
65996;SDS011;52765;52.258;21.052;2023-07-02T04:27:50;16.73;;;10.32;;
65996;SDS011;52765;52.258;21.052;2023-07-02T04:30:15;16.23;;;9.45;;
65996;SDS011;52765;52.258;21.052;2023-07-02T04:32:41;15.25;;;9.93;;
65996;SDS011;52765;52.258;21.052;2023-07-02T04:35:09;17.45;;;9.65;;
65996;SDS011;52765;52.258;21.052;2023-07-02T04:37:36;15.10;;;10.55;;
65996;SDS011;52765;52.258;21.052;2023-07-02T04:40:02;16.58;;;10.00;;
65996;SDS011;52765;52.258;21.052;2023-07-02T04:42:34;12.60;;;8.95;;
65996;SDS011;52765;52.258;21.052;2023-07-02T04:45:05;16.45;;;9.20;;
65996;SDS011;52765;52.258;21.052;2023-07-02T04:47:34;13.05;;;8.20;;
65996;SDS011;52765;52.258;21.052;2023-07-02T04:49:59;11.73;;;8.25;;
65996;SDS011;52765;52.258;21.052;2023-07-02T04:52:25;12.90;;;8.35;;
65996;SDS011;52765;52.258;21.052;2023-07-02T04:54:52;22.02;;;10.85;;
65996;SDS011;52765;52.258;21.052;2023-07-02T04:57:19;10.73;;;7.38;;
65996;SDS011;52765;52.258;21.052;2023-07-02T04:59:44;13.65;;;7.97;;
65996;SDS011;52765;52.258;21.052;2023-07-02T05:02:10;11.77;;;7.78;;
65996;SDS011;52765;52.258;21.052;2023-07-02T05:04:36;15.18;;;8.30;;
65996;SDS011;52765;52.258;21.052;2023-07-02T05:07:04;17.90;;;8.15;;
65996;SDS011;52765;52.258;21.052;2023-07-02T05:09:33;13.98;;;8.25;;
65996;SDS011;52765;52.258;21.052;2023-07-02T05:11:58;12.90;;;7.97;;
65996;SDS011;52765;52.258;21.052;2023-07-02T05:14:24;10.30;;;7.30;;
65996;SDS011;52765;52.258;21.052;2023-07-02T05:16:50;11.43;;;7.72;;
65996;SDS011;52765;52.258;21.052;2023-07-02T05:19:15;11.55;;;7.55;;
65996;SDS011;52765;52.258;21.052;2023-07-02T05:21:41;12.77;;;7.30;;
65996;SDS011;52765;52.258;21.052;2023-07-02T05:24:07;10.73;;;7.25;;
65996;SDS011;52765;52.258;21.052;2023-07-02T05:26:35;13.02;;;7.72;;
65996;SDS011;52765;52.258;21.052;2023-07-02T05:29:01;13.10;;;7.97;;
65996;SDS011;52765;52.258;21.052;2023-07-02T05:31:27;14.15;;;6.93;;
65996;SDS011;52765;52.258;21.052;2023-07-02T05:33:53;14.32;;;8.45;;
65996;SDS011;52765;52.258;21.052;2023-07-02T05:36:19;11.93;;;7.47;;
65996;SDS011;52765;52.258;21.052;2023-07-02T05:38:45;13.02;;;7.57;;
65996;SDS011;52765;52.258;21.052;2023-07-02T05:41:11;14.52;;;7.88;;
65996;SDS011;52765;52.258;21.052;2023-07-02T05:43:36;12.25;;;7.30;;
65996;SDS011;52765;52.258;21.052;2023-07-02T05:46:02;11.93;;;6.70;;
65996;SDS011;52765;52.258;21.052;2023-07-02T05:48:27;12.52;;;7.05;;
65996;SDS011;52765;52.258;21.052;2023-07-02T05:50:53;13.43;;;6.85;;
65996;SDS011;52765;52.258;21.052;2023-07-02T05:53:19;11.68;;;6.80;;
65996;SDS011;52765;52.258;21.052;2023-07-02T05:55:45;11.20;;;6.25;;
65996;SDS011;52765;52.258;21.052;2023-07-02T05:58:11;11.50;;;6.68;;
65996;SDS011;52765;52.258;21.052;2023-07-02T06:00:36;9.73;;;6.45;;
65996;SDS011;52765;52.258;21.052;2023-07-02T06:03:02;14.57;;;8.65;;
65996;SDS011;52765;52.258;21.052;2023-07-02T06:05:30;11.35;;;7.13;;
65996;SDS011;52765;52.258;21.052;2023-07-02T06:07:56;10.93;;;7.00;;
65996;SDS011;52765;52.258;21.052;2023-07-02T06:10:21;12.20;;;7.15;;
65996;SDS011;52765;52.258;21.052;2023-07-02T06:12:47;12.23;;;6.97;;
65996;SDS011;52765;52.258;21.052;2023-07-02T06:15:13;11.00;;;6.60;;
65996;SDS011;52765;52.258;21.052;2023-07-02T06:17:38;12.88;;;6.82;;
65996;SDS011;52765;52.258;21.052;2023-07-02T06:20:04;11.13;;;7.03;;
65996;SDS011;52765;52.258;21.052;2023-07-02T06:22:31;12.90;;;6.32;;
65996;SDS011;52765;52.258;21.052;2023-07-02T06:24:56;12.63;;;7.38;;
65996;SDS011;52765;52.258;21.052;2023-07-02T06:27:22;9.88;;;6.90;;
65996;SDS011;52765;52.258;21.052;2023-07-02T06:29:48;12.02;;;6.72;;
65996;SDS011;52765;52.258;21.052;2023-07-02T06:32:14;9.77;;;6.20;;
65996;SDS011;52765;52.258;21.052;2023-07-02T06:34:40;13.32;;;7.43;;
65996;SDS011;52765;52.258;21.052;2023-07-02T06:37:05;11.40;;;6.57;;
65996;SDS011;52765;52.258;21.052;2023-07-02T06:39:31;10.90;;;6.53;;
65996;SDS011;52765;52.258;21.052;2023-07-02T06:41:57;11.45;;;7.13;;
65996;SDS011;52765;52.258;21.052;2023-07-02T06:44:22;10.88;;;6.60;;
65996;SDS011;52765;52.258;21.052;2023-07-02T06:46:48;10.90;;;6.40;;
65996;SDS011;52765;52.258;21.052;2023-07-02T06:49:15;10.20;;;6.80;;
65996;SDS011;52765;52.258;21.052;2023-07-02T06:51:40;10.55;;;6.13;;
65996;SDS011;52765;52.258;21.052;2023-07-02T06:54:06;13.40;;;6.18;;
65996;SDS011;52765;52.258;21.052;2023-07-02T06:56:32;16.15;;;7.03;;
65996;SDS011;52765;52.258;21.052;2023-07-02T06:58:59;20.63;;;13.10;;
65996;SDS011;52765;52.258;21.052;2023-07-02T07:01:25;8.45;;;6.00;;
65996;SDS011;52765;52.258;21.052;2023-07-02T07:03:50;12.45;;;6.10;;
65996;SDS011;52765;52.258;21.052;2023-07-02T07:06:16;13.32;;;6.72;;
65996;SDS011;52765;52.258;21.052;2023-07-02T07:08:41;14.50;;;6.38;;
65996;SDS011;52765;52.258;21.052;2023-07-02T07:11:07;10.43;;;5.93;;
65996;SDS011;52765;52.258;21.052;2023-07-02T07:13:35;8.73;;;6.35;;
65996;SDS011;52765;52.258;21.052;2023-07-02T07:16:01;12.45;;;5.70;;
65996;SDS011;52765;52.258;21.052;2023-07-02T07:18:26;10.60;;;5.68;;
65996;SDS011;52765;52.258;21.052;2023-07-02T07:20:52;10.25;;;5.68;;
65996;SDS011;52765;52.258;21.052;2023-07-02T07:23:21;8.68;;;5.65;;
65996;SDS011;52765;52.258;21.052;2023-07-02T07:25:46;11.10;;;6.00;;
65996;SDS011;52765;52.258;21.052;2023-07-02T07:28:12;10.52;;;5.63;;
65996;SDS011;52765;52.258;21.052;2023-07-02T07:30:41;10.68;;;5.60;;
65996;SDS011;52765;52.258;21.052;2023-07-02T07:33:07;8.30;;;5.47;;
65996;SDS011;52765;52.258;21.052;2023-07-02T07:35:32;10.45;;;5.35;;
65996;SDS011;52765;52.258;21.052;2023-07-02T07:37:58;8.20;;;5.57;;
65996;SDS011;52765;52.258;21.052;2023-07-02T07:40:23;7.47;;;5.07;;
65996;SDS011;52765;52.258;21.052;2023-07-02T07:42:49;9.90;;;5.85;;
65996;SDS011;52765;52.258;21.052;2023-07-02T07:45:14;6.72;;;5.00;;
65996;SDS011;52765;52.258;21.052;2023-07-02T07:47:40;8.70;;;4.45;;
65996;SDS011;52765;52.258;21.052;2023-07-02T07:50:06;9.88;;;4.57;;
65996;SDS011;52765;52.258;21.052;2023-07-02T07:52:38;7.25;;;4.40;;
65996;SDS011;52765;52.258;21.052;2023-07-02T07:55:06;7.55;;;4.28;;
65996;SDS011;52765;52.258;21.052;2023-07-02T07:57:33;10.13;;;4.10;;
65996;SDS011;52765;52.258;21.052;2023-07-02T08:00:00;8.60;;;4.18;;
65996;SDS011;52765;52.258;21.052;2023-07-02T08:02:26;4.97;;;3.55;;
65996;SDS011;52765;52.258;21.052;2023-07-02T08:04:51;7.18;;;4.30;;
65996;SDS011;52765;52.258;21.052;2023-07-02T08:07:17;4.75;;;3.72;;
65996;SDS011;52765;52.258;21.052;2023-07-02T08:09:42;7.03;;;4.18;;
65996;SDS011;52765;52.258;21.052;2023-07-02T08:12:14;8.65;;;4.13;;
65996;SDS011;52765;52.258;21.052;2023-07-02T08:14:43;6.70;;;3.80;;
65996;SDS011;52765;52.258;21.052;2023-07-02T08:17:08;5.70;;;3.80;;
65996;SDS011;52765;52.258;21.052;2023-07-02T08:19:33;7.70;;;4.13;;
65996;SDS011;52765;52.258;21.052;2023-07-02T08:21:59;5.18;;;4.00;;
65996;SDS011;52765;52.258;21.052;2023-07-02T08:24:24;7.97;;;4.10;;
65996;SDS011;52765;52.258;21.052;2023-07-02T08:26:50;4.85;;;3.70;;
65996;SDS011;52765;52.258;21.052;2023-07-02T08:29:15;7.80;;;3.45;;
65996;SDS011;52765;52.258;21.052;2023-07-02T08:31:41;4.47;;;3.60;;
65996;SDS011;52765;52.258;21.052;2023-07-02T08:34:08;8.02;;;3.80;;
65996;SDS011;52765;52.258;21.052;2023-07-02T08:36:33;6.03;;;3.88;;
65996;SDS011;52765;52.258;21.052;2023-07-02T08:38:59;9.40;;;4.40;;
65996;SDS011;52765;52.258;21.052;2023-07-02T08:41:25;8.82;;;5.15;;
65996;SDS011;52765;52.258;21.052;2023-07-02T08:43:50;10.73;;;4.47;;
65996;SDS011;52765;52.258;21.052;2023-07-02T08:46:22;5.07;;;3.70;;
65996;SDS011;52765;52.258;21.052;2023-07-02T08:48:48;6.78;;;3.58;;
65996;SDS011;52765;52.258;21.052;2023-07-02T08:51:14;6.22;;;3.83;;
65996;SDS011;52765;52.258;21.052;2023-07-02T08:53:39;6.30;;;3.90;;
65996;SDS011;52765;52.258;21.052;2023-07-02T08:56:05;6.82;;;3.67;;
65996;SDS011;52765;52.258;21.052;2023-07-02T08:58:30;5.70;;;3.63;;
65996;SDS011;52765;52.258;21.052;2023-07-02T09:01:12;5.75;;;3.67;;
65996;SDS011;52765;52.258;21.052;2023-07-02T09:03:39;5.40;;;3.63;;
65996;SDS011;52765;52.258;21.052;2023-07-02T09:06:05;6.15;;;3.58;;
65996;SDS011;52765;52.258;21.052;2023-07-02T09:08:32;4.78;;;3.30;;
65996;SDS011;52765;52.258;21.052;2023-07-02T09:11:11;7.15;;;3.83;;
65996;SDS011;52765;52.258;21.052;2023-07-02T09:13:44;6.07;;;3.70;;
65996;SDS011;52765;52.258;21.052;2023-07-02T09:16:23;6.80;;;3.70;;
65996;SDS011;52765;52.258;21.052;2023-07-02T09:18:59;8.60;;;4.47;;
65996;SDS011;52765;52.258;21.052;2023-07-02T09:21:37;5.32;;;4.07;;
65996;SDS011;52765;52.258;21.052;2023-07-02T09:24:16;4.88;;;3.50;;
65996;SDS011;52765;52.258;21.052;2023-07-02T09:26:47;6.80;;;4.05;;
65996;SDS011;52765;52.258;21.052;2023-07-02T09:29:27;7.63;;;3.72;;
65996;SDS011;52765;52.258;21.052;2023-07-02T09:31:57;9.63;;;3.92;;
65996;SDS011;52765;52.258;21.052;2023-07-02T09:34:27;7.07;;;4.10;;
65996;SDS011;52765;52.258;21.052;2023-07-02T09:36:56;4.50;;;3.15;;
65996;SDS011;52765;52.258;21.052;2023-07-02T09:39:26;4.57;;;3.75;;
65996;SDS011;52765;52.258;21.052;2023-07-02T09:41:58;4.03;;;3.50;;
65996;SDS011;52765;52.258;21.052;2023-07-02T09:44:29;7.22;;;3.88;;
65996;SDS011;52765;52.258;21.052;2023-07-02T09:47:05;4.57;;;3.10;;
65996;SDS011;52765;52.258;21.052;2023-07-02T09:49:32;5.25;;;3.78;;
65996;SDS011;52765;52.258;21.052;2023-07-02T09:52:09;8.90;;;3.30;;
65996;SDS011;52765;52.258;21.052;2023-07-02T09:54:36;4.43;;;3.33;;
65996;SDS011;52765;52.258;21.052;2023-07-02T09:57:02;5.70;;;3.20;;
65996;SDS011;52765;52.258;21.052;2023-07-02T09:59:29;3.85;;;2.90;;
65996;SDS011;52765;52.258;21.052;2023-07-02T10:01:55;3.75;;;2.90;;
65996;SDS011;52765;52.258;21.052;2023-07-02T10:04:21;4.55;;;2.75;;
65996;SDS011;52765;52.258;21.052;2023-07-02T10:06:51;3.05;;;2.63;;
65996;SDS011;52765;52.258;21.052;2023-07-02T10:09:21;4.95;;;3.30;;
65996;SDS011;52765;52.258;21.052;2023-07-02T10:11:59;3.65;;;2.33;;
65996;SDS011;52765;52.258;21.052;2023-07-02T10:14:24;4.72;;;3.15;;
65996;SDS011;52765;52.258;21.052;2023-07-02T10:16:54;5.72;;;2.60;;
65996;SDS011;52765;52.258;21.052;2023-07-02T10:19:22;6.28;;;2.90;;
65996;SDS011;52765;52.258;21.052;2023-07-02T10:22:00;4.72;;;2.60;;
65996;SDS011;52765;52.258;21.052;2023-07-02T10:24:29;3.85;;;2.30;;
65996;SDS011;52765;52.258;21.052;2023-07-02T10:26:59;4.05;;;2.45;;
65996;SDS011;52765;52.258;21.052;2023-07-02T10:29:26;7.72;;;2.90;;
65996;SDS011;52765;52.258;21.052;2023-07-02T10:31:55;3.15;;;2.10;;
65996;SDS011;52765;52.258;21.052;2023-07-02T10:34:31;4.05;;;2.65;;
65996;SDS011;52765;52.258;21.052;2023-07-02T10:36:59;4.35;;;2.95;;
65996;SDS011;52765;52.258;21.052;2023-07-02T10:39:29;2.90;;;1.83;;
65996;SDS011;52765;52.258;21.052;2023-07-02T10:42:05;3.63;;;1.75;;
65996;SDS011;52765;52.258;21.052;2023-07-02T10:44:31;3.97;;;2.58;;
65996;SDS011;52765;52.258;21.052;2023-07-02T10:46:57;3.63;;;1.90;;
65996;SDS011;52765;52.258;21.052;2023-07-02T10:49:29;4.15;;;1.90;;
65996;SDS011;52765;52.258;21.052;2023-07-02T10:51:57;4.13;;;1.80;;
65996;SDS011;52765;52.258;21.052;2023-07-02T10:54:43;3.67;;;2.25;;
65996;SDS011;52765;52.258;21.052;2023-07-02T10:59:38;2.50;;;1.80;;
65996;SDS011;52765;52.258;21.052;2023-07-02T11:02:04;1.88;;;1.75;;
65996;SDS011;52765;52.258;21.052;2023-07-02T11:04:31;3.33;;;1.90;;
65996;SDS011;52765;52.258;21.052;2023-07-02T11:06:57;2.28;;;1.83;;
65996;SDS011;52765;52.258;21.052;2023-07-02T11:09:26;5.45;;;2.17;;
65996;SDS011;52765;52.258;21.052;2023-07-02T11:12:07;2.58;;;2.22;;
65996;SDS011;52765;52.258;21.052;2023-07-02T11:14:40;2.45;;;2.03;;
65996;SDS011;52765;52.258;21.052;2023-07-02T11:17:06;2.95;;;2.35;;
65996;SDS011;52765;52.258;21.052;2023-07-02T11:19:35;4.80;;;2.17;;
65996;SDS011;52765;52.258;21.052;2023-07-02T11:22:01;4.80;;;2.45;;
65996;SDS011;52765;52.258;21.052;2023-07-02T11:24:28;4.75;;;2.67;;
65996;SDS011;52765;52.258;21.052;2023-07-02T11:27:23;3.78;;;2.65;;
65996;SDS011;52765;52.258;21.052;2023-07-02T11:29:58;4.90;;;2.38;;
65996;SDS011;52765;52.258;21.052;2023-07-02T11:32:24;3.67;;;2.38;;
65996;SDS011;52765;52.258;21.052;2023-07-02T11:34:53;2.72;;;2.03;;
65996;SDS011;52765;52.258;21.052;2023-07-02T11:37:21;4.00;;;2.30;;
65996;SDS011;52765;52.258;21.052;2023-07-02T11:39:51;5.00;;;2.65;;
65996;SDS011;52765;52.258;21.052;2023-07-02T11:42:17;2.35;;;2.15;;
65996;SDS011;52765;52.258;21.052;2023-07-02T11:44:43;4.55;;;2.42;;
65996;SDS011;52765;52.258;21.052;2023-07-02T11:47:09;2.65;;;2.00;;
65996;SDS011;52765;52.258;21.052;2023-07-02T11:49:34;3.17;;;2.15;;
65996;SDS011;52765;52.258;21.052;2023-07-02T11:52:00;4.07;;;2.25;;
65996;SDS011;52765;52.258;21.052;2023-07-02T11:54:26;3.03;;;2.30;;
65996;SDS011;52765;52.258;21.052;2023-07-02T11:56:52;4.13;;;2.50;;
65996;SDS011;52765;52.258;21.052;2023-07-02T11:59:18;3.15;;;2.50;;
65996;SDS011;52765;52.258;21.052;2023-07-02T12:01:43;4.05;;;2.17;;
65996;SDS011;52765;52.258;21.052;2023-07-02T12:04:10;3.67;;;2.20;;
65996;SDS011;52765;52.258;21.052;2023-07-02T12:06:37;4.43;;;2.63;;
65996;SDS011;52765;52.258;21.052;2023-07-02T12:09:03;5.72;;;2.33;;
65996;SDS011;52765;52.258;21.052;2023-07-02T12:11:28;3.15;;;2.50;;
65996;SDS011;52765;52.258;21.052;2023-07-02T12:13:54;3.72;;;3.00;;
65996;SDS011;52765;52.258;21.052;2023-07-02T12:16:19;7.28;;;3.30;;
65996;SDS011;52765;52.258;21.052;2023-07-02T12:18:45;4.35;;;3.03;;
65996;SDS011;52765;52.258;21.052;2023-07-02T12:21:10;2.78;;;2.58;;
65996;SDS011;52765;52.258;21.052;2023-07-02T12:23:36;3.28;;;2.67;;
65996;SDS011;52765;52.258;21.052;2023-07-02T12:26:03;3.03;;;2.72;;
65996;SDS011;52765;52.258;21.052;2023-07-02T12:28:55;4.38;;;2.38;;
65996;SDS011;52765;52.258;21.052;2023-07-02T12:31:21;2.95;;;2.38;;
65996;SDS011;52765;52.258;21.052;2023-07-02T12:33:47;6.97;;;2.25;;
65996;SDS011;52765;52.258;21.052;2023-07-02T12:36:16;6.90;;;2.33;;
65996;SDS011;52765;52.258;21.052;2023-07-02T12:38:42;5.00;;;2.00;;
65996;SDS011;52765;52.258;21.052;2023-07-02T12:41:08;3.28;;;1.77;;
65996;SDS011;52765;52.258;21.052;2023-07-02T12:43:33;3.17;;;2.25;;
65996;SDS011;52765;52.258;21.052;2023-07-02T12:45:59;1.70;;;1.60;;
65996;SDS011;52765;52.258;21.052;2023-07-02T12:48:24;3.90;;;2.20;;
65996;SDS011;52765;52.258;21.052;2023-07-02T12:50:57;5.68;;;1.60;;
65996;SDS011;52765;52.258;21.052;2023-07-02T12:53:24;2.83;;;1.73;;
65996;SDS011;52765;52.258;21.052;2023-07-02T12:55:50;3.22;;;1.77;;
65996;SDS011;52765;52.258;21.052;2023-07-02T12:58:21;5.70;;;1.85;;
65996;SDS011;52765;52.258;21.052;2023-07-02T13:01:22;5.13;;;1.73;;
65996;SDS011;52765;52.258;21.052;2023-07-02T13:03:57;3.08;;;1.60;;
65996;SDS011;52765;52.258;21.052;2023-07-02T13:06:23;4.57;;;3.22;;
65996;SDS011;52765;52.258;21.052;2023-07-02T13:08:48;4.47;;;1.65;;
65996;SDS011;52765;52.258;21.052;2023-07-02T13:11:14;4.47;;;1.42;;
65996;SDS011;52765;52.258;21.052;2023-07-02T13:13:39;2.17;;;1.52;;
65996;SDS011;52765;52.258;21.052;2023-07-02T13:16:06;3.70;;;1.50;;
65996;SDS011;52765;52.258;21.052;2023-07-02T13:18:31;5.25;;;1.50;;
65996;SDS011;52765;52.258;21.052;2023-07-02T13:20:57;5.20;;;1.52;;
65996;SDS011;52765;52.258;21.052;2023-07-02T13:23:22;4.70;;;1.40;;
65996;SDS011;52765;52.258;21.052;2023-07-02T13:25:48;1.73;;;1.20;;
65996;SDS011;52765;52.258;21.052;2023-07-02T13:28:16;4.22;;;1.40;;
65996;SDS011;52765;52.258;21.052;2023-07-02T13:30:42;2.45;;;1.30;;
65996;SDS011;52765;52.258;21.052;2023-07-02T13:33:07;2.70;;;1.40;;
65996;SDS011;52765;52.258;21.052;2023-07-02T13:35:33;3.53;;;1.38;;
65996;SDS011;52765;52.258;21.052;2023-07-02T13:37:58;5.25;;;1.40;;
65996;SDS011;52765;52.258;21.052;2023-07-02T13:40:29;3.85;;;1.63;;
65996;SDS011;52765;52.258;21.052;2023-07-02T13:42:54;2.55;;;1.50;;
65996;SDS011;52765;52.258;21.052;2023-07-02T13:45:20;3.35;;;1.70;;
65996;SDS011;52765;52.258;21.052;2023-07-02T13:47:46;5.32;;;1.48;;
65996;SDS011;52765;52.258;21.052;2023-07-02T13:50:12;3.08;;;1.70;;
65996;SDS011;52765;52.258;21.052;2023-07-02T13:52:39;2.45;;;1.40;;
65996;SDS011;52765;52.258;21.052;2023-07-02T13:55:05;2.13;;;1.38;;
65996;SDS011;52765;52.258;21.052;2023-07-02T13:57:30;2.85;;;1.58;;
65996;SDS011;52765;52.258;21.052;2023-07-02T13:59:56;2.17;;;1.58;;
65996;SDS011;52765;52.258;21.052;2023-07-02T14:02:22;1.67;;;1.25;;
65996;SDS011;52765;52.258;21.052;2023-07-02T14:04:48;2.90;;;1.52;;
65996;SDS011;52765;52.258;21.052;2023-07-02T14:07:21;2.60;;;1.60;;
65996;SDS011;52765;52.258;21.052;2023-07-02T14:09:46;1.70;;;1.45;;
65996;SDS011;52765;52.258;21.052;2023-07-02T14:12:12;3.58;;;1.30;;
65996;SDS011;52765;52.258;21.052;2023-07-02T14:14:38;2.60;;;1.25;;
65996;SDS011;52765;52.258;21.052;2023-07-02T14:17:04;3.30;;;1.30;;
65996;SDS011;52765;52.258;21.052;2023-07-02T14:19:32;1.80;;;1.40;;
65996;SDS011;52765;52.258;21.052;2023-07-02T14:21:58;15.10;;;8.82;;
65996;SDS011;52765;52.258;21.052;2023-07-02T14:24:24;6.65;;;2.33;;
65996;SDS011;52765;52.258;21.052;2023-07-02T14:26:52;2.22;;;1.48;;
65996;SDS011;52765;52.258;21.052;2023-07-02T14:29:18;4.20;;;1.30;;
65996;SDS011;52765;52.258;21.052;2023-07-02T14:31:49;1.90;;;1.23;;